Time;durP1;ratioP1;P1;durP2;ratioP2;P2;SDS_P1;SDS_P2;PMS_P1;PMS_P2;Temp;Humidity;BMP_temperature;BMP_pressure;BME280_temperature;BME280_humidity;BME280_pressure;Samples;Min_cycle;Max_cycle;Signal;HPM_P1;HPM_P2
2022/11/14 00:01:07;;;;;;;48.20;36.13;;;9.60;99.90;;;;;;5041008;28;20278;-78
2022/11/14 00:03:35;;;;;;;49.70;34.53;;;9.60;99.90;;;;;;5040711;28;20644;-78
2022/11/14 00:06:06;;;;;;;53.30;36.10;;;9.60;99.90;;;;;;5047369;28;20282;-78
2022/11/14 00:08:33;;;;;;;52.10;34.83;;;9.60;99.90;;;;;;5048908;28;20246;-77
2022/11/14 00:10:59;;;;;;;48.47;34.30;;;9.60;99.90;;;;;;5041369;28;20593;-78
2022/11/14 00:13:27;;;;;;;51.58;37.05;;;9.60;99.90;;;;;;5048723;28;20237;-77
2022/11/14 00:15:54;;;;;;;59.08;36.85;;;9.60;99.90;;;;;;5053253;28;20608;-78
2022/11/14 00:18:24;;;;;;;53.20;36.58;;;9.60;99.90;;;;;;5042650;28;20600;-78
2022/11/14 00:20:52;;;;;;;54.55;37.03;;;9.60;99.90;;;;;;5034388;28;20606;-77
2022/11/14 00:23:20;;;;;;;52.75;38.15;;;9.60;99.90;;;;;;5047220;28;20229;-77
2022/11/14 00:25:47;;;;;;;54.55;38.03;;;9.60;99.90;;;;;;5038943;28;20599;-77
2022/11/14 00:28:15;;;;;;;48.28;35.67;;;9.60;99.90;;;;;;5039026;28;20593;-78
2022/11/14 00:30:42;;;;;;;54.50;37.20;;;9.50;99.90;;;;;;5045593;28;20235;-77
2022/11/14 00:33:09;;;;;;;54.63;35.58;;;9.50;99.90;;;;;;5038304;28;20221;-80
2022/11/14 00:35:37;;;;;;;57.45;37.90;;;9.50;99.90;;;;;;5045019;28;20228;-80
2022/11/14 00:38:04;;;;;;;58.00;36.55;;;9.40;99.90;;;;;;5041419;28;20765;-77
2022/11/14 00:40:31;;;;;;;54.33;37.58;;;9.50;99.90;;;;;;5034446;28;20259;-77
2022/11/14 00:43:02;;;;;;;56.25;37.83;;;9.30;99.90;;;;;;5046167;28;20248;-78
2022/11/14 00:45:29;;;;;;;58.42;36.20;;;9.30;99.90;;;;;;5039931;28;20229;-80
2022/11/14 00:47:56;;;;;;;53.67;38.40;;;9.40;99.90;;;;;;5039620;28;20228;-80
2022/11/14 00:50:23;;;;;;;55.20;40.10;;;9.40;99.90;;;;;;5046076;28;20229;-77
2022/11/14 00:52:51;;;;;;;59.20;38.35;;;9.40;99.90;;;;;;5049072;28;20244;-77
2022/11/14 00:55:19;;;;;;;53.80;37.00;;;9.50;99.90;;;;;;5053158;28;20259;-81
2022/11/14 00:57:46;;;;;;;59.10;39.75;;;9.40;99.90;;;;;;5049969;28;20555;-78
2022/11/14 01:00:15;;;;;;;50.97;37.03;;;9.40;99.90;;;;;;5047083;28;20239;-80
2022/11/14 01:02:42;;;;;;;57.45;37.65;;;9.40;99.90;;;;;;5055179;28;20233;-79
2022/11/14 01:05:10;;;;;;;61.78;38.58;;;9.40;99.90;;;;;;5051665;28;20549;-79
2022/11/14 01:07:37;;;;;;;53.17;36.05;;;9.40;99.90;;;;;;5051793;28;20235;-80
2022/11/14 01:10:06;;;;;;;58.78;38.85;;;9.40;99.90;;;;;;5044147;28;20233;-80
2022/11/14 01:12:34;;;;;;;52.78;36.78;;;9.40;99.90;;;;;;5046691;28;20246;-77
2022/11/14 01:15:01;;;;;;;55.90;37.97;;;9.40;99.90;;;;;;5041559;28;20228;-77
2022/11/14 01:17:28;;;;;;;55.55;37.85;;;9.30;99.90;;;;;;5039026;28;20308;-77
2022/11/14 01:19:55;;;;;;;54.72;37.80;;;9.40;99.90;;;;;;5047484;28;20768;-77
2022/11/14 01:22:23;;;;;;;60.63;38.83;;;9.30;99.90;;;;;;5041102;28;20285;-79
2022/11/14 01:24:50;;;;;;;54.50;38.38;;;9.30;99.90;;;;;;5042960;28;20236;-80
2022/11/14 01:27:18;;;;;;;57.28;39.22;;;9.40;99.90;;;;;;5045292;28;20222;-81
2022/11/14 01:29:46;;;;;;;60.85;41.47;;;9.30;99.90;;;;;;5036574;28;20244;-80
2022/11/14 01:32:13;;;;;;;56.75;37.88;;;9.30;99.90;;;;;;5045677;28;20232;-77
2022/11/14 01:34:41;;;;;;;60.60;40.60;;;9.30;99.90;;;;;;5042370;28;20271;-80
2022/11/14 01:37:08;;;;;;;62.35;38.45;;;9.30;99.90;;;;;;5039140;28;20235;-81
2022/11/14 01:39:35;;;;;;;58.53;40.03;;;9.20;99.90;;;;;;5048164;28;20298;-80
2022/11/14 01:42:02;;;;;;;59.85;39.30;;;9.30;99.90;;;;;;5039531;28;20245;-81
2022/11/14 01:44:47;;;;;;;65.40;39.42;;;9.30;99.90;;;;;;5047071;28;20236;-78
2022/11/14 01:47:19;;;;;;;59.03;38.70;;;9.20;99.90;;;;;;5038852;28;20227;-77
2022/11/14 01:49:49;;;;;;;58.05;37.60;;;9.20;99.90;;;;;;5044118;28;20224;-77
2022/11/14 01:52:20;;;;;;;60.95;37.58;;;9.30;99.90;;;;;;5036685;28;20654;-78
2022/11/14 01:54:50;;;;;;;58.80;38.90;;;9.30;99.90;;;;;;5040451;28;20312;-78
2022/11/14 01:57:20;;;;;;;65.93;41.72;;;9.30;99.90;;;;;;5045670;28;20225;-81
2022/11/14 01:59:52;;;;;;;63.58;38.67;;;9.30;99.90;;;;;;5049082;28;20232;-81
2022/11/14 02:02:23;;;;;;;70.55;40.67;;;9.30;99.90;;;;;;5041100;28;20308;-77
2022/11/14 02:04:55;;;;;;;63.95;40.95;;;9.30;99.90;;;;;;5045743;28;20295;-81
2022/11/14 02:07:24;;;;;;;65.13;40.63;;;9.30;99.90;;;;;;5046357;28;20225;-81
2022/11/14 02:09:52;;;;;;;68.80;40.17;;;9.30;99.90;;;;;;5038763;28;20682;-81
2022/11/14 02:12:20;;;;;;;65.93;39.50;;;9.30;99.90;;;;;;5043938;28;20697;-77
2022/11/14 02:14:52;;;;;;;66.25;41.58;;;9.30;99.90;;;;;;5034157;28;20752;-77
2022/11/14 02:17:20;;;;;;;61.95;40.35;;;9.30;99.90;;;;;;5045338;28;20682;-81
2022/11/14 02:19:50;;;;;;;64.22;41.72;;;9.20;99.90;;;;;;5040276;28;20308;-81
2022/11/14 02:22:19;;;;;;;58.55;39.15;;;9.30;99.90;;;;;;5034043;28;20736;-77
2022/11/14 02:24:46;;;;;;;62.58;38.03;;;9.30;99.90;;;;;;5026883;28;20646;-81
2022/11/14 02:27:15;;;;;;;63.92;40.45;;;9.20;99.90;;;;;;5043193;28;20232;-78
2022/11/14 02:29:43;;;;;;;70.43;40.83;;;9.20;99.90;;;;;;5049710;28;20294;-80
2022/11/14 02:32:10;;;;;;;60.40;39.88;;;9.20;99.90;;;;;;5043735;28;20225;-80
2022/11/14 02:34:38;;;;;;;68.18;41.63;;;9.20;99.90;;;;;;5034074;28;20659;-81
2022/11/14 02:37:06;;;;;;;64.60;39.75;;;9.10;99.90;;;;;;5044757;28;20630;-77
2022/11/14 02:39:35;;;;;;;59.28;38.33;;;9.10;99.90;;;;;;5043135;28;20247;-80
2022/11/14 02:42:02;;;;;;;71.22;39.38;;;9.10;99.90;;;;;;5040028;28;20328;-77
2022/11/14 02:44:29;;;;;;;65.32;37.92;;;9.10;99.90;;;;;;5040681;28;20245;-78
2022/11/14 02:46:56;;;;;;;66.18;39.70;;;9.10;99.90;;;;;;5043709;28;20256;-77
2022/11/14 02:49:27;;;;;;;61.65;40.25;;;9.20;99.90;;;;;;5048128;28;20313;-80
2022/11/14 02:51:54;;;;;;;68.15;39.88;;;9.20;99.90;;;;;;5049225;28;20228;-80
2022/11/14 02:54:22;;;;;;;63.90;37.17;;;9.20;99.90;;;;;;5047840;28;20570;-80
2022/11/14 02:56:50;;;;;;;63.80;36.08;;;9.30;99.90;;;;;;5044094;28;20225;-79
2022/11/14 02:59:18;;;;;;;64.55;40.00;;;9.30;99.90;;;;;;5047289;28;20261;-79
2022/11/14 03:01:45;;;;;;;64.15;38.17;;;9.30;99.90;;;;;;5048721;28;20243;-81
2022/11/14 03:04:12;;;;;;;68.88;39.58;;;9.30;99.90;;;;;;5046501;28;20225;-80
2022/11/14 03:06:40;;;;;;;63.30;39.47;;;9.20;99.90;;;;;;5048275;28;20720;-81
2022/11/14 03:09:07;;;;;;;64.97;39.85;;;9.20;99.90;;;;;;5051470;28;20290;-78
2022/11/14 03:11:34;;;;;;;61.25;37.58;;;9.20;99.90;;;;;;5041390;28;20225;-81
2022/11/14 03:14:02;;;;;;;62.30;38.60;;;9.30;99.90;;;;;;5047918;28;20662;-81
2022/11/14 03:16:29;;;;;;;68.18;39.53;;;9.30;99.90;;;;;;5049042;28;20287;-78
2022/11/14 03:19:02;;;;;;;66.80;38.85;;;9.20;99.90;;;;;;5047820;28;20721;-81
2022/11/14 03:21:30;;;;;;;67.53;38.47;;;9.10;99.90;;;;;;5048225;28;20224;-78
2022/11/14 03:23:57;;;;;;;62.08;37.60;;;9.20;99.90;;;;;;5044251;28;20220;-77
2022/11/14 03:26:24;;;;;;;59.60;39.00;;;9.20;99.90;;;;;;5052944;28;20689;-78
2022/11/14 03:28:51;;;;;;;71.93;39.00;;;9.30;99.90;;;;;;5044386;28;20558;-80
2022/11/14 03:31:19;;;;;;;61.70;39.47;;;9.20;99.90;;;;;;5051723;28;20294;-79
2022/11/14 03:33:46;;;;;;;69.25;41.50;;;9.30;99.90;;;;;;5044583;28;20666;-81
2022/11/14 03:36:14;;;;;;;67.20;40.30;;;9.30;99.90;;;;;;5052126;28;20231;-78
2022/11/14 03:38:41;;;;;;;65.22;38.25;;;9.30;99.90;;;;;;5044545;28;20240;-77
2022/11/14 03:41:08;;;;;;;66.97;39.72;;;9.30;99.90;;;;;;5050722;28;20222;-77
2022/11/14 03:43:35;;;;;;;63.85;37.03;;;9.30;99.90;;;;;;5042822;28;20538;-78
2022/11/14 03:46:03;;;;;;;63.72;39.28;;;9.30;99.90;;;;;;5048431;28;20675;-77
2022/11/14 03:48:32;;;;;;;62.67;39.42;;;9.30;99.90;;;;;;5045614;28;20225;-78
2022/11/14 03:50:59;;;;;;;71.35;38.15;;;9.30;99.90;;;;;;5049846;28;20228;-78
2022/11/14 03:53:27;;;;;;;56.20;37.72;;;9.40;99.90;;;;;;5046372;28;20311;-80
2022/11/14 03:55:54;;;;;;;74.53;40.58;;;9.40;99.90;;;;;;5040470;28;20282;-78
2022/11/14 03:58:21;;;;;;;63.05;40.55;;;9.40;99.90;;;;;;5053192;28;20323;-78
2022/11/14 04:00:48;;;;;;;64.35;39.25;;;9.40;99.90;;;;;;5053610;28;20290;-81
2022/11/14 04:03:15;;;;;;;67.35;38.42;;;9.30;99.90;;;;;;5054193;28;20271;-78
2022/11/14 04:05:45;;;;;;;64.38;38.42;;;9.40;99.90;;;;;;5054767;28;20547;-77
2022/11/14 04:08:12;;;;;;;65.65;41.88;;;9.40;99.90;;;;;;5054484;28;20220;-80
2022/11/14 04:10:40;;;;;;;61.08;37.28;;;9.40;99.90;;;;;;5052836;28;20294;-78
2022/11/14 04:13:08;;;;;;;64.25;39.83;;;9.40;99.90;;;;;;5054413;28;20241;-78
2022/11/14 04:15:35;;;;;;;71.78;42.53;;;9.40;99.90;;;;;;5053664;28;20611;-78
2022/11/14 04:18:05;;;;;;;68.05;41.20;;;9.40;99.90;;;;;;5045104;28;20267;-80
2022/11/14 04:20:32;;;;;;;69.72;41.03;;;9.40;99.90;;;;;;5053712;28;20568;-78
2022/11/14 04:23:00;;;;;;;66.18;40.33;;;9.30;99.90;;;;;;5054474;28;20598;-78
2022/11/14 04:25:27;;;;;;;65.13;36.92;;;9.30;99.90;;;;;;5052715;28;20240;-78
2022/11/14 04:27:54;;;;;;;69.78;41.25;;;9.30;99.90;;;;;;5054648;28;20287;-78
2022/11/14 04:30:21;;;;;;;61.95;39.22;;;9.30;99.90;;;;;;5053966;28;20228;-80
2022/11/14 04:32:49;;;;;;;63.95;39.90;;;9.30;99.90;;;;;;5054710;28;20816;-78
2022/11/14 04:35:16;;;;;;;58.33;38.10;;;9.30;99.90;;;;;;5054253;28;20262;-80
2022/11/14 04:37:43;;;;;;;62.25;36.63;;;9.30;99.90;;;;;;5053224;28;20227;-79
2022/11/14 04:40:12;;;;;;;56.40;34.10;;;9.30;99.90;;;;;;5053746;28;20217;-79
2022/11/14 04:42:39;;;;;;;75.50;41.10;;;9.30;99.90;;;;;;5053150;28;20236;-76
2022/11/14 04:45:08;;;;;;;62.30;40.50;;;9.30;99.90;;;;;;5053518;28;20290;-79
2022/11/14 04:47:35;;;;;;;67.38;38.15;;;9.30;99.90;;;;;;5052535;28;20224;-76
2022/11/14 04:50:02;;;;;;;65.25;38.40;;;9.20;99.90;;;;;;5053342;28;20229;-77
2022/11/14 04:52:29;;;;;;;71.10;40.05;;;9.20;99.90;;;;;;5052697;28;20236;-76
2022/11/14 04:54:56;;;;;;;62.38;39.50;;;9.20;99.90;;;;;;5053166;28;20236;-77
2022/11/14 04:57:27;;;;;;;68.15;40.63;;;9.30;99.90;;;;;;5052539;28;20539;-80
2022/11/14 04:59:54;;;;;;;69.63;42.25;;;9.30;99.90;;;;;;5053711;28;20544;-79
2022/11/14 05:02:22;;;;;;;74.32;42.17;;;9.20;99.90;;;;;;5053190;28;20228;-79
2022/11/14 05:04:49;;;;;;;63.42;38.72;;;9.20;99.90;;;;;;5052844;28;20278;-76
2022/11/14 05:07:17;;;;;;;69.05;41.67;;;9.10;99.90;;;;;;5054010;28;20542;-76
2022/11/14 05:09:43;;;;;;;66.25;39.67;;;9.10;99.90;;;;;;5052837;28;20232;-79
2022/11/14 05:12:11;;;;;;;69.82;41.40;;;9.00;99.90;;;;;;5053317;28;20248;-80
2022/11/14 05:14:39;;;;;;;75.28;41.10;;;9.00;99.90;;;;;;5053144;28;20232;-79
2022/11/14 05:17:06;;;;;;;69.03;40.25;;;9.00;99.90;;;;;;5053739;28;20636;-80
2022/11/14 05:19:33;;;;;;;70.55;40.97;;;9.00;99.90;;;;;;5053762;28;20291;-76
2022/11/14 05:22:00;;;;;;;67.30;40.00;;;9.10;99.90;;;;;;5053585;28;20221;-80
2022/11/14 05:24:27;;;;;;;71.60;42.05;;;9.10;99.90;;;;;;5053264;28;20228;-79
2022/11/14 05:26:58;;;;;;;64.38;41.05;;;8.90;99.90;;;;;;5053045;28;20582;-80
2022/11/14 05:29:25;;;;;;;68.95;39.08;;;8.90;99.90;;;;;;5053283;28;20225;-79
2022/11/14 05:31:54;;;;;;;65.30;34.85;;;8.80;99.90;;;;;;5054506;28;20601;-79
2022/11/14 05:34:21;;;;;;;67.25;40.10;;;8.80;99.90;;;;;;5053333;28;20303;-79
2022/11/14 05:36:48;;;;;;;71.28;40.97;;;8.80;99.90;;;;;;5051527;28;20585;-76
2022/11/14 05:39:16;;;;;;;68.28;42.08;;;8.80;99.90;;;;;;5053191;28;20670;-79
2022/11/14 05:41:43;;;;;;;74.70;42.53;;;8.80;99.90;;;;;;5051964;28;20235;-77
2022/11/14 05:44:10;;;;;;;76.18;43.58;;;8.70;99.90;;;;;;5053486;28;20267;-76
2022/11/14 05:46:37;;;;;;;76.75;42.15;;;8.70;99.90;;;;;;5053036;28;20687;-77
2022/11/14 05:49:06;;;;;;;72.90;43.20;;;8.70;99.90;;;;;;5053554;28;20262;-79
2022/11/14 05:51:33;;;;;;;75.40;42.30;;;8.70;99.90;;;;;;5052985;28;20608;-79
2022/11/14 05:54:00;;;;;;;65.18;36.45;;;8.70;99.90;;;;;;5053069;28;20225;-79
2022/11/14 05:56:27;;;;;;;79.70;45.08;;;8.80;99.90;;;;;;5054015;28;20248;-79
2022/11/14 05:58:54;;;;;;;72.07;41.40;;;8.80;99.90;;;;;;5056834;28;20232;-80
2022/11/14 06:01:21;;;;;;;72.05;39.63;;;8.80;99.90;;;;;;5054506;28;20221;-80
2022/11/14 06:03:49;;;;;;;80.97;42.75;;;8.80;99.90;;;;;;5054298;28;20236;-77
2022/11/14 06:06:21;;;;;;;73.63;39.03;;;8.80;99.90;;;;;;5054337;28;20605;-80
2022/11/14 06:08:49;;;;;;;68.85;41.85;;;8.80;99.90;;;;;;5052941;28;20645;-76
2022/11/14 06:11:17;;;;;;;73.30;38.72;;;8.80;99.90;;;;;;5054615;28;20236;-79
2022/11/14 06:13:45;;;;;;;60.72;37.15;;;8.80;99.90;;;;;;5054437;28;20221;-80
2022/11/14 06:16:13;;;;;;;69.03;42.50;;;8.90;99.90;;;;;;5054385;28;20225;-77
2022/11/14 06:18:41;;;;;;;66.15;39.95;;;8.90;99.90;;;;;;5063808;28;20236;-79
2022/11/14 06:21:11;;;;;;;76.82;40.13;;;8.90;99.90;;;;;;5062911;28;20228;-80
2022/11/14 06:23:40;;;;;;;73.72;39.75;;;8.80;99.90;;;;;;5060872;28;20306;-80
2022/11/14 06:26:12;;;;;;;69.03;37.92;;;8.90;99.90;;;;;;5065659;28;20229;-80
2022/11/14 06:28:39;;;;;;;68.78;40.25;;;8.80;99.90;;;;;;5068237;28;20259;-80
2022/11/14 06:31:06;;;;;;;78.60;41.85;;;8.90;99.90;;;;;;5069939;28;20221;-81
2022/11/14 06:33:35;;;;;;;75.65;42.20;;;8.90;99.90;;;;;;5063861;28;20216;-78
2022/11/14 06:36:05;;;;;;;72.25;40.13;;;8.80;99.90;;;;;;5065836;28;20252;-77
2022/11/14 06:38:33;;;;;;;73.78;41.90;;;8.80;99.90;;;;;;5067921;28;20225;-77
2022/11/14 06:41:18;;;;;;;83.47;43.42;;;8.80;99.90;;;;;;5065928;28;20237;-78
2022/11/14 07:21:16;;;;;;;74.40;41.72;;;8.70;99.90;;;;;;4901815;28;20236;-79
2022/11/14 07:23:43;;;;;;;84.95;42.50;;;8.70;99.90;;;;;;5069893;28;20296;-78
2022/11/14 07:26:11;;;;;;;70.82;39.28;;;8.70;99.90;;;;;;5070752;28;20225;-78
2022/11/14 07:28:41;;;;;;;80.85;42.75;;;8.70;99.90;;;;;;5068977;28;20670;-78
2022/11/14 07:31:11;;;;;;;67.63;40.72;;;8.80;99.90;;;;;;5062919;28;20220;-78
2022/11/14 07:33:40;;;;;;;68.25;40.85;;;8.80;99.90;;;;;;5068175;28;20252;-78
2022/11/14 07:36:08;;;;;;;68.03;39.70;;;8.80;99.90;;;;;;5072049;28;20247;-80
2022/11/14 07:38:37;;;;;;;68.45;38.95;;;8.90;99.90;;;;;;5073909;28;20220;-80
2022/11/14 07:41:06;;;;;;;70.60;39.00;;;9.00;99.90;;;;;;5074556;28;20227;-81
2022/11/14 07:43:33;;;;;;;76.55;43.38;;;9.00;99.90;;;;;;5075465;28;20235;-81
2022/11/14 07:46:00;;;;;;;75.13;41.75;;;9.10;99.90;;;;;;5060639;28;20237;-81
2022/11/14 07:48:27;;;;;;;72.85;40.45;;;9.10;99.90;;;;;;5062223;28;20278;-78
2022/11/14 07:50:58;;;;;;;73.70;40.55;;;9.10;99.90;;;;;;5073323;28;20227;-80
2022/11/14 07:53:25;;;;;;;69.57;37.80;;;9.00;99.90;;;;;;5074298;28;20263;-78
2022/11/14 07:55:53;;;;;;;69.88;38.70;;;9.00;99.90;;;;;;5073286;28;20225;-78
2022/11/14 07:58:20;;;;;;;73.38;40.40;;;9.00;99.90;;;;;;5074048;28;20274;-81
2022/11/14 08:00:47;;;;;;;64.32;36.70;;;9.00;99.90;;;;;;5073420;28;20233;-78
2022/11/14 08:03:14;;;;;;;67.25;39.03;;;9.00;99.90;;;;;;5073837;28;20224;-77
2022/11/14 08:05:41;;;;;;;65.13;36.25;;;9.10;99.90;;;;;;5071876;28;20224;-77
2022/11/14 08:08:09;;;;;;;63.85;38.28;;;9.00;99.90;;;;;;5073802;28;20213;-80
2022/11/14 08:10:36;;;;;;;71.45;39.40;;;9.10;99.90;;;;;;5071549;28;20299;-81
2022/11/14 08:13:07;;;;;;;72.53;41.42;;;9.00;99.90;;;;;;5059527;28;20235;-80
2022/11/14 08:15:34;;;;;;;65.93;38.25;;;9.00;99.90;;;;;;5063525;28;20239;-81
2022/11/14 08:18:02;;;;;;;70.50;39.83;;;9.10;99.90;;;;;;5062580;28;20290;-80
2022/11/14 08:20:29;;;;;;;65.35;36.70;;;9.00;99.90;;;;;;5066052;28;20251;-79
2022/11/14 08:23:02;;;;;;;63.78;38.40;;;9.10;99.90;;;;;;5065651;28;20236;-79
2022/11/14 08:25:31;;;;;;;68.47;39.35;;;9.10;99.90;;;;;;5057300;28;20241;-77
2022/11/14 08:27:58;;;;;;;61.30;36.03;;;9.10;99.90;;;;;;5056988;28;20225;-77
2022/11/14 08:30:25;;;;;;;66.40;37.80;;;9.10;99.90;;;;;;5056760;28;20233;-77
2022/11/14 08:32:55;;;;;;;60.45;37.22;;;9.10;99.90;;;;;;5054182;28;20228;-77
2022/11/14 08:35:23;;;;;;;66.65;38.55;;;9.00;99.90;;;;;;5055774;28;20229;-76
2022/11/14 08:37:50;;;;;;;72.00;38.28;;;9.00;99.90;;;;;;5053544;28;20221;-76
2022/11/14 08:40:17;;;;;;;62.78;37.22;;;9.00;99.90;;;;;;5054232;28;20224;-77
2022/11/14 08:42:45;;;;;;;62.65;37.13;;;9.00;99.90;;;;;;5051970;28;20229;-79
2022/11/14 08:45:15;;;;;;;72.55;40.05;;;9.00;99.90;;;;;;5055193;28;20229;-77
2022/11/14 08:47:43;;;;;;;63.90;36.25;;;9.00;99.90;;;;;;5054365;28;20236;-78
2022/11/14 08:50:10;;;;;;;57.50;38.00;;;9.00;99.90;;;;;;5054278;28;20371;-77
2022/11/14 08:52:37;;;;;;;69.20;35.00;;;9.00;99.90;;;;;;5058080;28;20278;-77
2022/11/14 08:55:04;;;;;;;61.83;36.40;;;9.10;99.90;;;;;;5068587;28;20333;-77
2022/11/14 08:57:31;;;;;;;62.70;37.53;;;9.00;99.90;;;;;;5065426;28;20220;-78
2022/11/14 09:00:00;;;;;;;56.65;33.85;;;9.00;99.90;;;;;;5064677;28;20286;-77
2022/11/14 09:02:27;;;;;;;60.78;35.33;;;9.00;99.90;;;;;;5063668;28;20302;-77
2022/11/14 09:04:54;;;;;;;61.58;36.63;;;9.00;99.90;;;;;;5063853;28;20220;-77
2022/11/14 09:07:21;;;;;;;67.97;37.67;;;9.00;99.90;;;;;;5067492;28;20225;-77
2022/11/14 09:09:50;;;;;;;67.00;35.60;;;9.10;99.90;;;;;;5062494;28;20229;-78
2022/11/14 09:12:17;;;;;;;62.30;37.50;;;9.10;99.90;;;;;;5055271;28;20252;-77
2022/11/14 09:14:44;;;;;;;68.50;36.28;;;9.20;99.90;;;;;;5051806;28;20641;-77
2022/11/14 09:17:13;;;;;;;61.63;36.08;;;9.20;99.90;;;;;;5053540;28;20232;-77
2022/11/14 09:19:40;;;;;;;58.33;35.72;;;9.20;99.90;;;;;;5052440;28;20238;-81
2022/11/14 09:22:07;;;;;;;60.47;35.38;;;9.30;99.90;;;;;;5052934;28;20225;-77
2022/11/14 09:24:34;;;;;;;61.33;36.45;;;9.40;99.90;;;;;;5053241;28;20290;-77
2022/11/14 09:27:01;;;;;;;65.60;35.22;;;9.40;99.90;;;;;;5053419;28;20252;-80
2022/11/14 09:29:28;;;;;;;63.30;37.58;;;9.40;99.90;;;;;;5053609;28;20232;-80
2022/11/14 09:31:56;;;;;;;62.40;34.35;;;9.40;99.90;;;;;;5052661;28;20282;-77
2022/11/14 09:34:24;;;;;;;59.90;33.88;;;9.50;99.90;;;;;;5053295;28;20267;-77
2022/11/14 09:36:52;;;;;;;60.90;38.67;;;9.50;99.90;;;;;;5053054;28;20244;-77
2022/11/14 09:39:19;;;;;;;59.78;36.08;;;9.60;99.90;;;;;;5053699;28;20286;-80
2022/11/14 09:42:02;;;;;;;57.13;35.38;;;9.60;99.90;;;;;;5053411;28;20224;-81
2022/11/14 09:44:46;;;;;;;59.83;33.00;;;9.60;99.90;;;;;;5054236;28;20216;-78
2022/11/14 09:47:17;;;;;;;66.65;35.20;;;9.60;99.90;;;;;;5053568;28;20239;-81
2022/11/14 09:49:46;;;;;;;61.72;34.45;;;9.60;99.90;;;;;;5052898;28;20237;-81
2022/11/14 09:52:22;;;;;;;56.03;32.80;;;9.60;99.90;;;;;;5055468;28;20228;-81
2022/11/14 09:54:56;;;;;;;55.13;33.60;;;9.70;99.90;;;;;;5055741;28;20228;-82
2022/11/14 09:57:23;;;;;;;57.08;32.72;;;9.70;99.90;;;;;;5058214;28;20288;-80
2022/11/14 09:59:52;;;;;;;56.13;32.00;;;9.80;99.90;;;;;;5056627;28;20236;-78
2022/11/14 10:02:40;;;;;;;60.20;33.00;;;9.90;99.90;;;;;;5058013;28;20227;-78
2022/11/14 10:05:23;;;;;;;61.78;32.67;;;9.90;99.90;;;;;;5057741;28;20666;-78
2022/11/14 10:08:06;;;;;;;52.45;31.65;;;9.90;99.90;;;;;;5057852;28;20224;-80
2022/11/14 10:10:46;;;;;;;50.88;29.55;;;10.00;99.90;;;;;;5056901;28;20224;-79
2022/11/14 10:13:26;;;;;;;51.55;31.25;;;10.00;99.90;;;;;;5057388;28;20224;-80
2022/11/14 10:15:59;;;;;;;47.25;28.70;;;10.00;99.90;;;;;;5056452;28;20231;-81
2022/11/14 10:18:48;;;;;;;54.47;33.38;;;10.10;99.90;;;;;;5054616;28;20682;-81
2022/11/14 10:21:34;;;;;;;52.33;29.98;;;10.10;99.90;;;;;;5056081;28;20224;-78
2022/11/14 10:24:11;;;;;;;47.50;29.58;;;10.20;99.90;;;;;;5055640;28;20224;-80
2022/11/14 10:26:47;;;;;;;42.28;28.25;;;10.20;99.90;;;;;;5055907;28;20282;-77
2022/11/14 10:29:50;;;;;;;49.20;29.13;;;10.30;99.90;;;;;;5056339;28;20333;-77
2022/11/14 10:32:27;;;;;;;47.55;28.42;;;10.30;99.90;;;;;;5056922;28;20282;-77
2022/11/14 10:35:02;;;;;;;45.30;31.02;;;10.30;99.90;;;;;;5056668;28;20228;-78
2022/11/14 10:37:36;;;;;;;41.50;29.95;;;10.40;99.90;;;;;;5056038;28;20242;-77
2022/11/14 10:40:16;;;;;;;42.97;28.42;;;10.40;99.90;;;;;;5056605;28;20685;-81
2022/11/14 10:42:46;;;;;;;47.08;29.45;;;10.50;99.90;;;;;;5057618;28;20701;-81
2022/11/14 10:45:18;;;;;;;41.53;28.17;;;10.60;99.90;;;;;;5056222;28;20260;-81
2022/11/14 10:47:51;;;;;;;44.30;29.73;;;10.60;99.90;;;;;;5055632;28;20233;-76
2022/11/14 10:50:23;;;;;;;54.25;33.58;;;10.70;99.90;;;;;;5055417;28;20220;-76
2022/11/14 10:52:56;;;;;;;44.60;28.90;;;10.80;99.90;;;;;;5056133;28;20237;-80
2022/11/14 10:55:23;;;;;;;44.65;29.67;;;10.80;99.90;;;;;;5056040;28;20220;-82
2022/11/14 10:57:51;;;;;;;49.75;30.95;;;10.80;99.90;;;;;;5056352;28;20238;-81
2022/11/14 11:00:23;;;;;;;47.92;31.42;;;10.80;99.90;;;;;;5052630;28;20290;-76
2022/11/14 11:02:52;;;;;;;49.55;30.67;;;10.80;99.90;;;;;;5046337;28;20220;-76
2022/11/14 11:05:25;;;;;;;47.47;30.45;;;10.80;99.90;;;;;;5054586;28;20232;-76
2022/11/14 11:13:33;;;;;;;45.97;28.80;;;11.00;99.90;;;;;;5051338;28;20261;-79
2022/11/14 11:16:04;;;;;;;45.35;30.23;;;11.10;99.90;;;;;;5055450;28;20232;-78
2022/11/14 11:18:33;;;;;;;43.03;28.92;;;11.10;99.90;;;;;;5052566;28;20224;-76
2022/11/14 11:21:12;;;;;;;38.45;29.02;;;11.20;99.90;;;;;;5053693;28;20212;-76
2022/11/14 11:23:50;;;;;;;41.45;28.95;;;11.20;99.90;;;;;;5054931;28;20236;-80
2022/11/14 11:29:18;;;;;;;43.17;28.42;;;11.30;99.90;;;;;;5050815;28;20225;-77
2022/11/14 11:31:58;;;;;;;39.05;26.90;;;11.30;99.90;;;;;;5054442;28;20302;-77
2022/11/14 11:34:30;;;;;;;36.08;26.75;;;11.30;99.90;;;;;;5031655;28;20225;-76
2022/11/14 11:37:03;;;;;;;42.45;27.60;;;11.30;99.90;;;;;;5048151;28;20225;-77
2022/11/14 11:39:35;;;;;;;38.10;27.05;;;11.30;99.90;;;;;;5050457;28;20232;-76
2022/11/14 11:42:08;;;;;;;43.65;28.95;;;11.30;99.90;;;;;;5053906;28;20221;-77
2022/11/14 11:44:44;;;;;;;39.15;27.92;;;11.30;99.90;;;;;;5048157;28;20224;-77
2022/11/14 11:47:16;;;;;;;38.83;27.73;;;11.40;99.90;;;;;;5036332;28;20694;-76
2022/11/14 11:49:46;;;;;;;37.25;24.40;;;11.40;99.90;;;;;;5051602;28;20223;-77
2022/11/14 11:52:18;;;;;;;41.20;25.65;;;11.40;99.90;;;;;;5052848;28;20331;-76
2022/11/14 11:54:57;;;;;;;41.50;26.83;;;11.50;99.90;;;;;;5053500;28;20601;-76
2022/11/14 11:57:32;;;;;;;39.00;28.48;;;11.50;99.90;;;;;;5052111;28;20294;-77
2022/11/14 12:00:06;;;;;;;42.20;27.67;;;11.50;99.90;;;;;;5030276;28;20232;-77
2022/11/14 12:02:36;;;;;;;40.92;28.65;;;11.50;99.90;;;;;;5043699;28;20224;-76
2022/11/14 12:08:32;;;;;;;33.83;26.20;;;11.60;99.90;;;;;;4978827;28;20231;-76
2022/11/14 12:11:04;;;;;;;40.08;27.40;;;11.60;99.90;;;;;;4991086;28;20222;-77
2022/11/14 12:14:11;;;;;;;37.10;25.88;;;11.60;99.90;;;;;;5040509;28;20224;-80
2022/11/14 12:17:14;;;;;;;38.88;26.75;;;11.70;99.90;;;;;;5068576;28;20613;-80
2022/11/14 12:20:03;;;;;;;38.92;28.02;;;11.70;99.90;;;;;;5073407;28;20236;-80
2022/11/14 12:22:49;;;;;;;34.33;26.10;;;11.70;99.90;;;;;;5070189;28;20259;-79
2022/11/14 12:25:38;;;;;;;33.90;26.55;;;11.70;99.90;;;;;;5056285;28;20228;-76
2022/11/14 12:28:39;;;;;;;38.85;26.90;;;11.70;99.90;;;;;;5070384;28;20212;-79
2022/11/14 12:31:12;;;;;;;39.15;25.50;;;11.80;99.90;;;;;;5068785;28;20216;-76
2022/11/14 12:33:45;;;;;;;43.42;27.38;;;11.90;99.90;;;;;;5065914;28;20221;-79
2022/11/14 12:36:13;;;;;;;32.22;25.45;;;11.90;99.90;;;;;;5072499;28;20224;-79
2022/11/14 12:38:45;;;;;;;40.70;26.05;;;11.90;99.90;;;;;;5072610;28;20236;-76
2022/11/14 12:41:21;;;;;;;36.60;26.13;;;11.90;99.90;;;;;;5071938;28;20228;-76
2022/11/14 12:43:49;;;;;;;31.58;23.73;;;11.90;99.90;;;;;;5059992;28;20285;-76
2022/11/14 12:46:16;;;;;;;33.90;23.92;;;12.00;99.90;;;;;;5057684;28;20783;-79
2022/11/14 12:48:44;;;;;;;31.95;23.55;;;12.00;99.90;;;;;;5053508;28;20228;-76
2022/11/14 12:51:49;;;;;;;34.20;24.35;;;12.10;99.90;;;;;;5053618;28;20642;-79
2022/11/14 12:54:45;;;;;;;31.00;24.23;;;12.10;99.90;;;;;;5053258;28;20299;-80
2022/11/14 13:00:08;;;;;;;27.58;21.45;;;12.10;99.90;;;;;;5052669;28;20240;-80
2022/11/14 13:03:21;;;;;;;32.00;23.15;;;12.10;99.90;;;;;;5060682;28;20618;-79
2022/11/14 13:05:58;;;;;;;29.88;24.00;;;12.20;99.90;;;;;;5056827;28;20578;-79
2022/11/14 13:08:46;;;;;;;30.38;23.40;;;12.20;99.90;;;;;;5052406;28;20236;-79
2022/11/14 13:23:49;;;;;;;28.08;20.05;;;12.40;99.90;;;;;;5035648;28;20269;-79
2022/11/14 13:26:47;;;;;;;29.10;21.83;;;12.40;99.90;;;;;;5044538;28;20231;-80
2022/11/14 13:29:56;;;;;;;27.40;21.60;;;12.50;99.90;;;;;;5067462;28;20299;-77
2022/11/14 13:32:55;;;;;;;27.58;22.02;;;12.50;99.90;;;;;;5071899;28;20234;-80
2022/11/14 13:35:47;;;;;;;27.88;22.05;;;12.50;99.90;;;;;;5071298;28;20216;-80
2022/11/14 13:38:36;;;;;;;26.90;19.73;;;12.50;99.90;;;;;;5072989;28;20212;-80
2022/11/14 13:41:26;;;;;;;23.33;20.10;;;12.50;99.90;;;;;;5073142;28;20225;-79
2022/11/14 13:44:08;;;;;;;23.70;19.70;;;12.50;99.90;;;;;;5063290;28;20211;-76
2022/11/14 13:47:01;;;;;;;26.52;20.50;;;12.50;99.90;;;;;;5072652;28;20235;-77
2022/11/14 13:49:51;;;;;;;23.05;20.65;;;12.50;99.90;;;;;;5067538;28;20232;-77
2022/11/14 13:52:20;;;;;;;25.80;19.80;;;12.60;99.90;;;;;;5071198;28;20557;-77
2022/11/14 13:54:48;;;;;;;27.10;21.15;;;12.50;99.90;;;;;;5069030;28;20653;-76
2022/11/14 13:57:24;;;;;;;27.48;20.88;;;12.50;99.90;;;;;;5055112;28;20231;-76